Time,TemperatureF,DewpointF,PressureIn,WindDirection,WindDirectionDegrees,WindSpeedMPH,WindSpeedGustMPH,Humidity,HourlyPrecipIn,Conditions,Clouds,dailyrainin,SoftwareType,DateUTC
2013-04-09 00:00:00,53.8,24.6,29.76,WNW,286,5.0,10.0,32,0.00,,,0.00,Wunderground v.1.15,2013-04-09 07:00:00,
2013-04-09 00:10:00,53.3,24.2,29.77,WNW,288,5.0,5.0,32,0.00,,,0.00,Wunderground v.1.15,2013-04-09 07:10:00,
2013-04-09 00:20:00,53.2,26.2,29.77,WNW,288,2.0,2.0,35,0.00,,,0.00,Wunderground v.1.15,2013-04-09 07:20:00,
2013-04-09 00:30:00,52.7,27.1,29.77,WNW,288,0.0,10.0,37,0.00,,,0.00,Wunderground v.1.15,2013-04-09 07:30:00,
2013-04-09 00:40:00,52.2,29.2,29.78,WNW,288,0.0,10.0,41,0.00,,,0.00,Wunderground v.1.15,2013-04-09 07:40:00,
2013-04-09 00:50:00,51.7,27.5,29.79,NW,304,2.0,14.0,39,0.00,,,0.00,Wunderground v.1.15,2013-04-09 07:50:00,
2013-04-09 01:00:00,53.7,23.7,29.79,North,360,15.0,15.0,31,0.00,,,0.00,Wunderground v.1.15,2013-04-09 08:00:00,
2013-04-09 01:10:00,54.1,19.0,29.78,NNW,348,19.0,25.0,25,0.00,,,0.00,Wunderground v.1.15,2013-04-09 08:10:00,
2013-04-09 01:20:00,53.7,18.7,29.78,North,360,24.0,24.0,25,0.00,,,0.00,Wunderground v.1.15,2013-04-09 08:20:00,
2013-04-09 01:30:00,54.0,18.9,29.78,North,355,26.0,26.0,25,0.00,,,0.00,Wunderground v.1.15,2013-04-09 08:30:00,
2013-04-09 01:40:00,54.2,19.1,29.78,North,360,28.0,32.0,25,0.00,,,0.00,Wunderground v.1.15,2013-04-09 08:40:00,
2013-04-09 01:50:00,54.2,19.1,29.78,North,5,29.0,30.0,25,0.00,,,0.00,Wunderground v.1.15,2013-04-09 08:50:00,
2013-04-09 02:00:00,53.9,18.8,29.78,North,360,26.0,33.0,25,0.00,,,0.00,Wunderground v.1.15,2013-04-09 09:00:00,
2013-04-09 02:10:00,54.1,19.0,29.78,North,360,27.0,27.0,25,0.00,,,0.00,Wunderground v.1.15,2013-04-09 09:10:00,
2013-04-09 02:20:00,54.1,19.0,29.78,North,5,26.0,26.0,25,0.00,,,0.00,Wunderground v.1.15,2013-04-09 09:20:00,
2013-04-09 02:30:00,53.6,19.5,29.78,North,11,23.0,23.0,26,0.00,,,0.00,Wunderground v.1.15,2013-04-09 09:30:00,
2013-04-09 02:40:00,53.5,19.4,29.78,North,11,22.0,22.0,26,0.00,,,0.00,Wunderground v.1.15,2013-04-09 09:40:00,
2013-04-09 02:50:00,53.3,19.2,29.79,North,10,18.0,18.0,26,0.00,,,0.00,Wunderground v.1.15,2013-04-09 09:50:00,
2013-04-09 03:00:00,53.6,19.5,29.79,North,360,22.0,25.0,26,0.00,,,0.00,Wunderground v.1.15,2013-04-09 10:00:00,
2013-04-09 03:10:00,53.4,20.2,29.79,North,355,21.0,21.0,27,0.00,,,0.00,Wunderground v.1.15,2013-04-09 10:10:00,
2013-04-09 03:20:00,53.1,20.0,29.79,North,360,17.0,23.0,27,0.00,,,0.00,Wunderground v.1.15,2013-04-09 10:20:00,
2013-04-09 03:30:00,53.0,19.9,29.80,NNE,14,20.0,22.0,27,0.00,,,0.00,Wunderground v.1.15,2013-04-09 10:30:00,
2013-04-09 03:40:00,51.8,22.1,29.80,NNW,340,16.0,21.0,31,0.00,,,0.00,Wunderground v.1.15,2013-04-09 10:40:00,
2013-04-09 03:50:00,52.2,20.9,29.80,North,355,16.0,16.0,29,0.00,,,0.00,Wunderground v.1.15,2013-04-09 10:50:00,
2013-04-09 04:00:00,52.4,21.0,29.80,NNE,21,17.0,17.0,29,0.00,,,0.00,Wunderground v.1.15,2013-04-09 11:00:00,
2013-04-09 04:10:00,52.2,20.9,29.80,NNE,26,24.0,27.0,29,0.00,,,0.00,Wunderground v.1.15,2013-04-09 11:10:00,
2013-04-09 04:20:00,52.1,20.8,29.80,North,350,23.0,23.0,29,0.00,,,0.00,Wunderground v.1.15,2013-04-09 11:20:00,
2013-04-09 04:30:00,50.6,24.6,29.81,NNW,339,7.0,7.0,36,0.00,,,0.00,Wunderground v.1.15,2013-04-09 11:30:00,
2013-04-09 04:40:00,49.2,28.7,29.82,WNW,293,7.0,11.0,45,0.00,,,0.00,Wunderground v.1.15,2013-04-09 11:40:00,
2013-04-09 05:00:00,47.8,29.0,29.83,West,277,3.0,3.0,48,0.00,,,0.00,Wunderground v.1.15,2013-04-09 12:00:00,
2013-04-09 05:10:00,48.1,28.3,29.83,West,277,2.0,10.0,46,0.00,,,0.00,Wunderground v.1.15,2013-04-09 12:10:00,
2013-04-09 05:20:00,48.2,28.4,29.84,West,277,4.0,10.0,46,0.00,,,0.00,Wunderground v.1.15,2013-04-09 12:20:00,
2013-04-09 05:30:00,47.7,29.5,29.84,West,268,9.0,9.0,49,0.00,,,0.00,Wunderground v.1.15,2013-04-09 12:30:00,
2013-04-09 05:50:00,47.5,28.8,29.85,West,268,5.0,5.0,48,0.00,,,0.00,Wunderground v.1.15,2013-04-09 12:50:00,
2013-04-09 06:00:00,47.7,28.4,29.85,West,268,4.0,4.0,47,0.00,,,0.00,Wunderground v.1.15,2013-04-09 13:00:00,
2013-04-09 06:10:00,50.2,20.7,29.85,NW,305,8.0,15.0,31,0.00,,,0.00,Wunderground v.1.15,2013-04-09 13:10:00,
2013-04-09 06:20:00,51.8,18.8,29.86,North,355,17.0,27.0,27,0.00,,,0.00,Wunderground v.1.15,2013-04-09 13:20:00,
2013-04-09 06:30:00,51.4,21.0,29.87,NW,323,24.0,24.0,30,0.00,,,0.00,Wunderground v.1.15,2013-04-09 13:30:00,
2013-04-09 06:40:00,50.9,25.5,29.87,NW,311,21.0,21.0,37,0.00,,,0.00,Wunderground v.1.15,2013-04-09 13:40:00,
2013-04-09 06:50:00,50.9,22.1,29.88,WNW,303,17.0,21.0,32,0.00,,,0.00,Wunderground v.1.15,2013-04-09 13:50:00,
2013-04-09 07:00:00,50.9,26.2,29.87,NW,311,14.0,14.0,38,0.00,,,0.00,Wunderground v.1.15,2013-04-09 14:00:00,
2013-04-09 07:10:00,50.7,25.3,29.88,NNW,336,13.0,15.0,37,0.00,,,0.00,Wunderground v.1.15,2013-04-09 14:10:00,
2013-04-09 07:20:00,50.4,20.1,29.89,NNW,327,12.0,20.0,30,0.00,,,0.00,Wunderground v.1.15,2013-04-09 14:20:00,
2013-04-09 07:30:00,52.0,19.0,29.89,NNW,348,18.0,22.0,27,0.00,,,0.00,Wunderground v.1.15,2013-04-09 14:30:00,
2013-04-09 07:40:00,53.5,18.5,29.89,North,355,26.0,26.0,25,0.00,,,0.00,Wunderground v.1.15,2013-04-09 14:40:00,
2013-04-09 07:50:00,54.2,17.1,29.89,NNW,341,25.0,25.0,23,0.00,,,0.00,Wunderground v.1.15,2013-04-09 14:50:00,
2013-04-09 08:00:00,54.8,17.7,29.89,NNW,346,26.0,26.0,23,0.00,,,0.00,Wunderground v.1.15,2013-04-09 15:00:00,
2013-04-09 08:10:00,55.4,16.1,29.89,North,355,26.0,33.0,21,0.00,,,0.00,Wunderground v.1.15,2013-04-09 15:10:00,
2013-04-09 08:20:00,55.6,16.2,29.89,NNW,348,31.0,31.0,21,0.00,,,0.00,Wunderground v.1.15,2013-04-09 15:20:00,
2013-04-09 08:30:00,56.3,16.8,29.89,North,355,26.0,26.0,21,0.00,,,0.00,Wunderground v.1.15,2013-04-09 15:30:00,
2013-04-09 08:40:00,56.7,16.0,29.89,North,355,24.0,24.0,20,0.00,,,0.00,Wunderground v.1.15,2013-04-09 15:40:00,
2013-04-09 08:50:00,56.8,17.2,29.89,North,360,22.0,23.0,21,0.00,,,0.00,Wunderground v.1.15,2013-04-09 15:50:00,
2013-04-09 09:00:00,57.1,17.5,29.88,North,355,22.0,24.0,21,0.00,,,0.00,Wunderground v.1.15,2013-04-09 16:00:00,
2013-04-09 09:10:00,57.3,17.6,29.88,North,360,23.0,23.0,21,0.00,,,0.00,Wunderground v.1.15,2013-04-09 16:10:00,
2013-04-09 09:20:00,57.8,18.1,29.88,North,355,22.0,22.0,21,0.00,,,0.00,Wunderground v.1.15,2013-04-09 16:20:00,
2013-04-09 09:30:00,58.2,17.3,29.88,NNE,14,24.0,24.0,20,0.00,,,0.00,Wunderground v.1.15,2013-04-09 16:30:00,
2013-04-09 09:40:00,58.5,17.5,29.88,North,355,24.0,24.0,20,0.00,,,0.00,Wunderground v.1.15,2013-04-09 16:40:00,
2013-04-09 09:50:00,59.0,17.9,29.88,North,355,25.0,25.0,20,0.00,,,0.00,Wunderground v.1.15,2013-04-09 16:50:00,
2013-04-09 10:10:00,59.0,16.7,29.89,NNE,32,19.0,19.0,19,0.00,,,0.00,Wunderground v.1.15,2013-04-09 17:10:00,
2013-04-09 10:20:00,59.9,17.5,29.89,NNE,19,15.0,20.0,19,0.00,,,0.00,Wunderground v.1.15,2013-04-09 17:20:00,
2013-04-09 10:30:00,59.8,17.4,29.89,North,355,15.0,15.0,19,0.00,,,0.00,Wunderground v.1.15,2013-04-09 17:30:00,
2013-04-09 10:40:00,60.6,18.1,29.89,NNE,32,16.0,16.0,19,0.00,,,0.00,Wunderground v.1.15,2013-04-09 17:40:00,
2013-04-09 10:50:00,60.8,17.0,29.89,NNW,346,18.0,18.0,18,0.00,,,0.00,Wunderground v.1.15,2013-04-09 17:50:00,
2013-04-09 11:00:00,62.3,18.2,29.89,NNE,13,15.0,17.0,18,0.00,,,0.00,Wunderground v.1.15,2013-04-09 18:00:00,
2013-04-09 11:10:00,62.4,17.0,29.88,North,349,18.0,25.0,17,0.00,,,0.00,Wunderground v.1.15,2013-04-09 18:10:00,
2013-04-09 11:20:00,63.4,17.8,29.88,NNW,334,20.0,20.0,17,0.00,,,0.00,Wunderground v.1.15,2013-04-09 18:20:00,
2013-04-09 11:30:00,63.4,17.8,29.88,North,355,18.0,18.0,17,0.00,,,0.00,Wunderground v.1.15,2013-04-09 18:30:00,
2013-04-09 11:40:00,63.3,17.7,29.88,NNW,333,23.0,23.0,17,0.00,,,0.00,Wunderground v.1.15,2013-04-09 18:40:00,
2013-04-09 11:50:00,63.9,18.2,29.88,NNW,333,21.0,21.0,17,0.00,,,0.00,Wunderground v.1.15,2013-04-09 18:50:00,
2013-04-09 12:00:00,64.3,17.1,29.88,North,350,21.0,25.0,16,0.00,,,0.00,Wunderground v.1.15,2013-04-09 19:00:00,
2013-04-09 12:10:00,65.3,17.9,29.87,North,355,20.0,26.0,16,0.00,,,0.00,Wunderground v.1.15,2013-04-09 19:10:00,
2013-04-09 12:20:00,64.9,17.6,29.86,North,351,22.0,22.0,16,0.00,,,0.00,Wunderground v.1.15,2013-04-09 19:20:00,
2013-04-09 12:30:00,65.8,16.8,29.87,NNW,342,24.0,29.0,15,0.00,,,0.00,Wunderground v.1.15,2013-04-09 19:30:00,
2013-04-09 12:40:00,66.0,17.0,29.87,North,5,23.0,23.0,15,0.00,,,0.00,Wunderground v.1.15,2013-04-09 19:40:00,
2013-04-09 12:50:00,65.9,16.9,29.86,North,5,24.0,24.0,15,0.00,,,0.00,Wunderground v.1.15,2013-04-09 19:50:00,
2013-04-09 13:00:00,66.3,17.2,29.86,North,350,23.0,23.0,15,0.00,,,0.00,Wunderground v.1.15,2013-04-09 20:00:00,
2013-04-09 13:10:00,66.5,15.8,29.86,North,11,27.0,27.0,14,0.00,,,0.00,Wunderground v.1.15,2013-04-09 20:10:00,
2013-04-09 13:20:00,67.4,14.8,29.85,NNE,25,27.0,27.0,13,0.00,,,0.00,Wunderground v.1.15,2013-04-09 20:20:00,
2013-04-09 13:30:00,67.3,14.7,29.85,North,5,27.0,28.0,13,0.00,,,0.00,Wunderground v.1.15,2013-04-09 20:30:00,
2013-04-09 13:40:00,67.8,13.3,29.84,North,355,25.0,25.0,12,0.00,,,0.00,Wunderground v.1.15,2013-04-09 20:40:00,
2013-04-09 13:50:00,67.8,13.3,29.84,North,360,26.0,26.0,12,0.00,,,0.00,Wunderground v.1.15,2013-04-09 20:50:00,
2013-04-09 14:00:00,68.5,13.8,29.83,North,355,23.0,33.0,12,0.00,,,0.00,Wunderground v.1.15,2013-04-09 21:00:00,
2013-04-09 14:10:00,68.5,13.8,29.83,NNW,346,21.0,22.0,12,0.00,,,0.00,Wunderground v.1.15,2013-04-09 21:10:00,
2013-04-09 14:20:00,69.0,14.2,29.83,North,360,22.0,22.0,12,0.00,,,0.00,Wunderground v.1.15,2013-04-09 21:20:00,
2013-04-09 14:30:00,68.7,14.0,29.82,NNW,345,23.0,31.0,12,0.00,,,0.00,Wunderground v.1.15,2013-04-09 21:30:00,
2013-04-09 14:40:00,69.2,14.4,29.82,NNE,13,24.0,34.0,12,0.00,,,0.00,Wunderground v.1.15,2013-04-09 21:40:00,
2013-04-09 14:50:00,69.4,12.5,29.82,North,360,24.0,24.0,11,0.00,,,0.00,Wunderground v.1.15,2013-04-09 21:50:00,
2013-04-09 15:00:00,69.4,14.5,29.82,NE,34,20.0,20.0,12,0.00,,,0.00,Wunderground v.1.15,2013-04-09 22:00:00,
2013-04-09 15:10:00,69.7,12.8,29.81,North,349,21.0,21.0,11,0.00,,,0.00,Wunderground v.1.15,2013-04-09 22:10:00,
2013-04-09 15:20:00,69.4,12.5,29.81,North,9,16.0,18.0,11,0.00,,,0.00,Wunderground v.1.15,2013-04-09 22:20:00,
2013-04-09 15:30:00,69.7,12.8,29.81,NNW,346,13.0,18.0,11,0.00,,,0.00,Wunderground v.1.15,2013-04-09 22:30:00,
2013-04-09 15:40:00,69.8,12.9,29.81,North,11,15.0,15.0,11,0.00,,,0.00,Wunderground v.1.15,2013-04-09 22:40:00,
2013-04-09 15:50:00,69.8,10.7,29.81,NNE,20,17.0,17.0,10,0.00,,,0.00,Wunderground v.1.15,2013-04-09 22:50:00,
2013-04-09 16:00:00,70.9,9.2,29.80,NNE,24,14.0,21.0,9,0.00,,,0.00,Wunderground v.1.15,2013-04-09 23:00:00,
2013-04-09 16:10:00,71.1,9.3,29.79,NNE,29,15.0,21.0,9,0.00,,,0.00,Wunderground v.1.15,2013-04-09 23:10:00,
2013-04-09 16:20:00,71.3,9.5,29.79,NE,44,18.0,18.0,9,0.00,,,0.00,Wunderground v.1.15,2013-04-09 23:20:00,
2013-04-09 16:30:00,71.7,9.8,29.80,NNE,12,15.0,21.0,9,0.00,,,0.00,Wunderground v.1.15,2013-04-09 23:30:00,
2013-04-09 16:40:00,71.0,11.6,29.80,NNW,348,19.0,21.0,10,0.00,,,0.00,Wunderground v.1.15,2013-04-09 23:40:00,
2013-04-09 16:50:00,71.5,12.0,29.80,NNW,343,17.0,21.0,10,0.00,,,0.00,Wunderground v.1.15,2013-04-09 23:50:00,
2013-04-09 17:00:00,71.5,12.0,29.80,NNE,26,15.0,18.0,10,0.00,,,0.00,Wunderground v.1.15,2013-04-10 00:00:00,
2013-04-09 17:10:00,71.6,12.1,29.80,NE,38,17.0,19.0,10,0.00,,,0.00,Wunderground v.1.15,2013-04-10 00:10:00,
2013-04-09 17:20:00,71.9,12.3,29.80,NNW,342,16.0,16.0,10,0.00,,,0.00,Wunderground v.1.15,2013-04-10 00:20:00,
2013-04-09 17:30:00,71.6,14.2,29.80,NNE,28,14.0,14.0,11,0.00,,,0.00,Wunderground v.1.15,2013-04-10 00:30:00,
2013-04-09 17:40:00,71.8,14.4,29.80,NNE,14,15.0,19.0,11,0.00,,,0.00,Wunderground v.1.15,2013-04-10 00:40:00,
2013-04-09 17:50:00,71.6,14.2,29.80,North,360,17.0,17.0,11,0.00,,,0.00,Wunderground v.1.15,2013-04-10 00:50:00,
2013-04-09 18:00:00,72.0,14.6,29.81,NNE,14,12.0,12.0,11,0.00,,,0.00,Wunderground v.1.15,2013-04-10 01:00:00,
2013-04-09 18:10:00,72.1,14.6,29.81,NNE,24,10.0,12.0,11,0.00,,,0.00,Wunderground v.1.15,2013-04-10 01:10:00,
2013-04-09 18:20:00,71.9,14.5,29.81,NNE,31,16.0,18.0,11,0.00,,,0.00,Wunderground v.1.15,2013-04-10 01:20:00,
2013-04-09 18:30:00,71.7,23.1,29.82,NW,306,14.0,14.0,16,0.00,,,0.00,Wunderground v.1.15,2013-04-10 01:30:00,
2013-04-09 18:40:00,69.4,26.6,29.81,WNW,284,6.0,6.0,20,0.00,,,0.00,Wunderground v.1.15,2013-04-10 01:40:00,
2013-04-09 18:50:00,68.7,26.0,29.81,WNW,290,4.0,10.0,20,0.00,,,0.00,Wunderground v.1.15,2013-04-10 01:50:00,
2013-04-09 19:00:00,67.6,26.2,29.82,WNW,302,6.0,6.0,21,0.00,,,0.00,Wunderground v.1.15,2013-04-10 02:00:00,
2013-04-09 19:10:00,67.9,18.5,29.83,NNE,22,4.0,10.0,15,0.00,,,0.00,Wunderground v.1.15,2013-04-10 02:10:00,
2013-04-09 19:20:00,68.2,23.0,29.84,NE,36,6.0,10.0,18,0.00,,,0.00,Wunderground v.1.15,2013-04-10 02:20:00,
2013-04-09 19:30:00,66.5,26.4,29.84,NE,34,4.0,10.0,22,0.00,,,0.00,Wunderground v.1.15,2013-04-10 02:30:00,
2013-04-09 19:40:00,65.0,28.3,29.85,NNE,15,4.0,10.0,25,0.00,,,0.00,Wunderground v.1.15,2013-04-10 02:40:00,
2013-04-09 19:50:00,62.9,27.5,29.85,WSW,248,6.0,10.0,26,0.00,,,0.00,Wunderground v.1.15,2013-04-10 02:50:00,
2013-04-09 20:00:00,64.4,26.8,29.86,West,268,6.0,6.0,24,0.00,,,0.00,Wunderground v.1.15,2013-04-10 03:00:00,
2013-04-09 20:10:00,62.7,27.3,29.88,SW,224,7.0,10.0,26,0.00,,,0.00,Wunderground v.1.15,2013-04-10 03:10:00,
2013-04-09 20:20:00,61.2,26.9,29.88,South,178,9.0,12.0,27,0.00,,,0.00,Wunderground v.1.15,2013-04-10 03:20:00,
2013-04-09 20:30:00,60.6,26.4,29.89,South,170,10.0,12.0,27,0.00,,,0.00,Wunderground v.1.15,2013-04-10 03:30:00,
2013-04-09 20:40:00,60.6,26.4,29.90,South,169,8.0,8.0,27,0.00,,,0.00,Wunderground v.1.15,2013-04-10 03:40:00,
2013-04-09 20:50:00,61.1,25.9,29.91,South,175,4.0,10.0,26,0.00,,,0.00,Wunderground v.1.15,2013-04-10 03:50:00,
2013-04-09 21:00:00,60.7,25.6,29.92,South,175,4.0,4.0,26,0.00,,,0.00,Wunderground v.1.15,2013-04-10 04:00:00,
2013-04-09 21:10:00,59.9,25.8,29.92,South,175,2.0,10.0,27,0.00,,,0.00,Wunderground v.1.15,2013-04-10 04:10:00,
2013-04-09 21:20:00,59.0,25.0,29.93,South,175,5.0,5.0,27,0.00,,,0.00,Wunderground v.1.15,2013-04-10 04:20:00,
2013-04-09 21:30:00,60.1,25.1,29.94,South,175,6.0,10.0,26,0.00,,,0.00,Wunderground v.1.15,2013-04-10 04:30:00,
2013-04-09 21:40:00,62.8,21.1,29.95,SE,146,3.0,10.0,20,0.00,,,0.00,Wunderground v.1.15,2013-04-10 04:40:00,
2013-04-09 21:50:00,61.7,23.5,29.96,SE,146,3.0,10.0,23,0.00,,,0.00,Wunderground v.1.15,2013-04-10 04:50:00,
2013-04-09 22:00:00,60.2,22.2,29.96,SE,146,1.0,1.0,23,0.00,,,0.00,Wunderground v.1.15,2013-04-10 05:00:00,
2013-04-09 22:10:00,59.8,21.9,29.97,SE,146,0.0,10.0,23,0.00,,,0.00,Wunderground v.1.15,2013-04-10 05:10:00,
2013-04-09 22:20:00,60.0,17.6,29.97,SE,146,1.0,1.0,19,0.00,,,0.00,Wunderground v.1.15,2013-04-10 05:20:00,
2013-04-09 22:40:00,61.3,17.4,29.97,NE,35,7.0,7.0,18,0.00,,,0.00,Wunderground v.1.15,2013-04-10 05:40:00,
2013-04-09 22:50:00,61.0,17.1,29.98,NE,35,7.0,7.0,18,0.00,,,0.00,Wunderground v.1.15,2013-04-10 05:50:00,
2013-04-09 23:00:00,60.7,16.9,29.98,NE,37,8.0,8.0,18,0.00,,,0.00,Wunderground v.1.15,2013-04-10 06:00:00,
2013-04-09 23:10:00,61.0,17.1,29.99,NE,34,10.0,10.0,18,0.00,,,0.00,Wunderground v.1.15,2013-04-10 06:10:00,
2013-04-09 23:20:00,60.5,16.7,29.99,NE,35,7.0,10.0,18,0.00,,,0.00,Wunderground v.1.15,2013-04-10 06:20:00,
2013-04-09 23:30:00,60.7,18.1,29.99,NNE,24,9.0,10.0,19,0.00,,,0.00,Wunderground v.1.15,2013-04-10 06:30:00,
2013-04-09 23:40:00,61.6,18.9,30.00,North,10,11.0,17.0,19,0.00,,,0.00,Wunderground v.1.15,2013-04-10 06:40:00,
2013-04-09 23:50:00,62.1,18.0,30.00,North,350,14.0,14.0,18,0.00,,,0.00,Wunderground v.1.15,2013-04-10 06:50:00,